Time;durP1;ratioP1;P1;durP2;ratioP2;P2;SDS_P1;SDS_P2;PMS_P1;PMS_P2;Temp;Humidity;BMP_temperature;BMP_pressure;BME280_temperature;BME280_humidity;BME280_pressure;Samples;Min_cycle;Max_cycle;Signal;HPM_P1;HPM_P2
2023/04/28 00:00:00;;;;;;;5.82;2.83;;;;;;;5.95;59.52;100292.91;4363348;32;33362;-86
2023/04/28 00:02:26;;;;;;;4.30;2.85;;;;;;;5.63;59.50;100301.59;4351694;32;20165;-87
2023/04/28 00:04:51;;;;;;;4.05;2.58;;;;;;;5.68;59.51;100289.53;4363402;32;20168;-87
2023/04/28 00:07:16;;;;;;;5.68;2.47;;;;;;;5.57;59.50;100291.28;4363760;32;20719;-88
2023/04/28 00:09:42;;;;;;;4.70;2.37;;;;;;;5.53;59.50;100292.16;4363926;32;20468;-87
2023/04/28 00:12:07;;;;;;;7.80;2.42;;;;;;;5.62;59.50;100289.53;4363829;32;20137;-88
2023/04/28 00:14:32;;;;;;;5.15;2.47;;;;;;;5.58;59.50;100287.84;4363758;32;20177;-86
2023/04/28 00:16:58;;;;;;;3.40;2.12;;;;;;;5.65;59.50;100288.66;4377268;32;20129;-87
2023/04/28 00:19:23;;;;;;;3.85;2.25;;;;;;;5.71;59.51;100291.25;4363882;32;20414;-87
2023/04/28 00:21:49;;;;;;;3.95;2.20;;;;;;;5.69;59.50;100293.00;4364210;32;21099;-87
2023/04/28 00:24:14;;;;;;;5.25;2.22;;;;;;;5.55;59.50;100283.56;4351494;32;20154;-88
2023/04/28 00:26:40;;;;;;;3.25;1.87;;;;;;;5.63;59.50;100283.50;4365093;32;20175;-87
2023/04/28 00:29:05;;;;;;;5.03;2.00;;;;;;;5.52;59.49;100286.16;4353386;32;20111;-87
2023/04/28 00:31:30;;;;;;;7.35;2.40;;;;;;;5.37;59.48;100288.75;4365404;32;20814;-87
2023/04/28 00:33:56;;;;;;;3.33;1.80;;;;;;;5.55;59.50;100282.69;4353184;32;20099;-87
2023/04/28 00:36:21;;;;;;;3.78;2.10;;;;;;;5.54;59.50;100291.31;4377352;32;25943;-87
2023/04/28 00:38:47;;;;;;;3.75;2.42;;;;;;;5.57;59.50;100286.12;4379345;32;20218;-86
2023/04/28 00:41:14;;;;;;;5.55;2.05;;;;;;;5.63;59.50;100292.97;4365649;32;20176;-88
2023/04/28 00:43:46;;;;;;;6.32;2.42;;;;;;;5.62;59.50;100292.13;4379321;32;20099;-87
2023/04/28 00:46:16;;;;;;;3.83;2.35;;;;;;;5.55;59.49;100291.28;4365697;32;20134;-87
2023/04/28 00:48:42;;;;;;;5.43;2.20;;;;;;;5.53;59.50;100297.34;4366109;32;20112;-86
2023/04/28 00:51:07;;;;;;;7.37;2.20;;;;;;;5.47;59.49;100290.47;4365070;32;20524;-87
2023/04/28 00:53:32;;;;;;;4.10;2.15;;;;;;;5.82;59.50;100294.63;4365138;32;20107;-87
2023/04/28 00:55:58;;;;;;;6.00;2.60;;;;;;;5.73;59.50;100294.69;4365181;32;20445;-87
2023/04/28 00:58:23;;;;;;;7.22;1.90;;;;;;;5.61;59.50;100293.00;4365189;32;21479;-86
2023/04/28 01:00:49;;;;;;;5.35;2.67;;;;;;;5.27;59.48;100302.56;4352667;32;26141;-87
2023/04/28 01:03:14;;;;;;;4.05;1.92;;;;;;;5.28;59.47;100308.56;4353190;32;20445;-87
2023/04/28 01:05:40;;;;;;;4.25;2.25;;;;;;;5.18;59.48;100311.16;4353130;32;20392;-87
2023/04/28 01:08:06;;;;;;;3.45;2.10;;;;;;;5.10;59.47;100309.44;4365595;32;20114;-86
2023/04/28 01:10:31;;;;;;;4.40;2.47;;;;;;;5.20;59.47;100313.72;4365477;32;20095;-86
2023/04/28 01:12:57;;;;;;;2.80;2.17;;;;;;;5.31;59.49;100309.44;4379270;32;20697;-87
2023/04/28 01:15:22;;;;;;;5.40;1.95;;;;;;;5.22;59.47;100318.06;4378760;32;20117;-86
2023/04/28 01:17:47;;;;;;;4.37;2.33;;;;;;;5.01;59.46;100309.47;4365303;32;20129;-87
2023/04/28 01:20:13;;;;;;;4.82;2.05;;;;;;;4.98;59.46;100312.06;4352281;32;28553;-87
2023/04/28 01:22:39;;;;;;;6.65;2.33;;;;;;;5.06;59.47;100306.03;4352875;32;20129;-87
2023/04/28 01:25:05;;;;;;;7.35;2.53;;;;;;;4.94;59.46;100306.00;4353003;32;20377;-87
2023/04/28 01:27:30;;;;;;;4.32;2.03;;;;;;;4.81;59.46;100310.31;4365372;32;20141;-87
2023/04/28 01:29:58;;;;;;;4.30;2.30;;;;;;;4.97;59.46;100313.78;4378852;32;20129;-87
2023/04/28 01:32:24;;;;;;;7.07;2.50;;;;;;;4.90;59.46;100304.28;4365786;32;20095;-87
2023/04/28 01:34:50;;;;;;;4.62;2.15;;;;;;;4.78;59.45;100306.88;4378873;32;20130;-88
2023/04/28 01:37:15;;;;;;;9.70;2.20;;;;;;;4.75;59.45;100305.19;4364517;32;20448;-87
2023/04/28 01:39:41;;;;;;;6.60;2.78;;;;;;;4.85;59.45;100295.72;4364875;32;23822;-87
2023/04/28 01:42:06;;;;;;;6.18;2.05;;;;;;;4.71;59.44;100303.44;4352670;32;20117;-87
2023/04/28 01:44:32;;;;;;;6.07;2.50;;;;;;;4.70;59.44;100306.88;4365245;32;20098;-87
2023/04/28 01:46:57;;;;;;;7.37;2.22;;;;;;;4.67;59.44;100304.28;4352691;32;20173;-87
2023/04/28 01:49:23;;;;;;;5.15;2.15;;;;;;;4.73;59.45;100303.44;4379000;32;20091;-87
2023/04/28 01:51:48;;;;;;;4.28;2.47;;;;;;;4.70;59.45;100306.00;4365287;32;20504;-87
2023/04/28 01:54:14;;;;;;;8.10;2.72;;;;;;;4.65;59.45;100303.44;4365116;32;20111;-85
2023/04/28 01:56:40;;;;;;;6.55;2.55;;;;;;;4.74;59.45;100300.88;4364591;32;26239;-86
2023/04/28 01:59:05;;;;;;;5.78;2.95;;;;;;;4.84;59.45;100294.00;4379016;32;20114;-87
2023/04/28 02:01:30;;;;;;;5.78;2.87;;;;;;;4.59;59.44;100296.56;4365414;32;20158;-87
2023/04/28 02:03:56;;;;;;;4.78;2.42;;;;;;;4.66;59.45;100307.72;4365446;32;20420;-87
2023/04/28 02:06:21;;;;;;;4.30;2.67;;;;;;;4.74;59.45;100306.03;4352046;32;27294;-87
2023/04/28 02:08:47;;;;;;;4.35;2.08;;;;;;;4.69;59.45;100312.03;4365195;32;20067;-87
2023/04/28 02:11:12;;;;;;;4.80;2.47;;;;;;;4.89;59.45;100297.41;4364859;32;20128;-87
2023/04/28 02:13:37;;;;;;;5.40;2.60;;;;;;;4.65;59.44;100308.59;4352847;32;20111;-87
2023/04/28 02:16:03;;;;;;;6.00;3.00;;;;;;;4.71;59.44;100310.31;4364380;32;21360;-87
2023/04/28 02:18:29;;;;;;;4.10;2.12;;;;;;;4.70;59.44;100308.59;4365021;32;20090;-87
2023/04/28 02:20:54;;;;;;;3.58;2.30;;;;;;;4.62;59.44;100306.00;4365092;32;20163;-86
2023/04/28 02:23:20;;;;;;;6.22;2.90;;;;;;;4.50;59.44;100306.00;4352871;32;20095;-86
2023/04/28 02:25:45;;;;;;;5.25;2.67;;;;;;;4.58;59.44;100312.88;4365136;32;20174;-87
2023/04/28 02:28:11;;;;;;;4.62;2.60;;;;;;;4.65;59.45;100308.59;4364938;32;20744;-87
2023/04/28 02:30:37;;;;;;;4.47;2.33;;;;;;;4.72;59.45;100304.28;4365401;32;20124;-88
2023/04/28 02:33:02;;;;;;;7.18;3.00;;;;;;;4.69;59.45;100304.28;4364471;32;20154;-87
2023/04/28 02:35:28;;;;;;;7.57;2.85;;;;;;;4.45;59.43;100312.84;4352391;32;20428;-88
2023/04/28 02:37:53;;;;;;;6.03;2.80;;;;;;;4.19;59.41;100317.94;4365138;32;20138;-87
2023/04/28 02:40:19;;;;;;;6.87;3.50;;;;;;;4.26;59.42;100318.00;4377774;32;31386;-86
2023/04/28 02:42:44;;;;;;;6.10;3.05;;;;;;;4.17;59.41;100319.66;4377298;32;20102;-86
2023/04/28 02:45:10;;;;;;;5.28;2.35;;;;;;;4.32;59.42;100310.25;4364754;32;20154;-86
2023/04/28 02:47:36;;;;;;;5.62;3.08;;;;;;;4.22;59.42;100320.53;4364986;32;20113;-86
2023/04/28 02:50:01;;;;;;;5.72;3.15;;;;;;;4.12;59.42;100319.66;4351975;32;20151;-88
2023/04/28 02:52:27;;;;;;;6.85;3.28;;;;;;;4.04;59.40;100320.50;4364809;32;20126;-86
2023/04/28 02:54:56;;;;;;;8.32;3.35;;;;;;;4.25;59.42;100315.37;4364800;32;20379;-87
2023/04/28 02:57:21;;;;;;;6.78;3.30;;;;;;;4.06;59.42;100316.22;4365259;32;20623;-87
2023/04/28 02:59:46;;;;;;;8.07;3.35;;;;;;;4.05;59.41;100315.34;4364726;32;20115;-87
2023/04/28 03:02:12;;;;;;;7.55;3.83;;;;;;;4.24;59.42;100321.38;4364647;32;20472;-86
2023/04/28 03:04:37;;;;;;;8.55;3.85;;;;;;;4.25;59.42;100323.97;4364720;32;20140;-87
2023/04/28 03:07:03;;;;;;;10.02;4.07;;;;;;;4.22;59.42;100323.97;4364314;32;20463;-87
2023/04/28 03:09:28;;;;;;;8.43;4.22;;;;;;;4.12;59.42;100321.38;4364289;32;22490;-84
2023/04/28 03:11:53;;;;;;;6.95;3.95;;;;;;;3.93;59.40;100323.88;4364601;32;20099;-86
2023/04/28 03:14:19;;;;;;;9.10;4.28;;;;;;;4.07;59.41;100325.66;4364550;32;20110;-86
2023/04/28 03:16:45;;;;;;;7.62;3.67;;;;;;;4.14;59.42;100327.38;4351782;32;20108;-86
2023/04/28 03:19:10;;;;;;;8.25;3.70;;;;;;;3.99;59.41;100318.75;4352109;32;20138;-87
2023/04/28 03:21:35;;;;;;;8.13;3.95;;;;;;;4.01;59.40;100324.75;4352096;32;20111;-87
2023/04/28 03:24:01;;;;;;;6.70;3.83;;;;;;;3.70;59.39;100323.78;4352020;32;20495;-87
2023/04/28 03:26:26;;;;;;;9.30;4.20;;;;;;;3.79;59.39;100322.97;4364545;32;20139;-87
2023/04/28 03:28:52;;;;;;;12.23;3.85;;;;;;;3.91;59.41;100323.00;4364553;32;20151;-86
2023/04/28 03:31:17;;;;;;;9.15;3.75;;;;;;;3.98;59.41;100323.88;4364577;32;20103;-86
2023/04/28 03:33:44;;;;;;;6.85;4.07;;;;;;;4.07;59.41;100317.94;4351881;32;20766;-86
2023/04/28 03:36:10;;;;;;;10.07;4.68;;;;;;;4.18;59.41;100321.38;4378153;32;20091;-86
2023/04/28 03:38:35;;;;;;;7.78;3.78;;;;;;;3.99;59.41;100325.59;4364551;32;20126;-86
2023/04/28 03:41:00;;;;;;;9.05;3.42;;;;;;;4.03;59.40;100323.94;4364676;32;20139;-86
2023/04/28 03:43:26;;;;;;;9.73;4.68;;;;;;;4.09;59.41;100329.09;4364305;32;20138;-87
2023/04/28 03:45:51;;;;;;;10.75;4.20;;;;;;;4.06;59.41;100321.34;4377803;32;20416;-87
2023/04/28 03:48:17;;;;;;;13.20;4.43;;;;;;;4.09;59.41;100319.66;4364337;32;20696;-87
2023/04/28 03:50:44;;;;;;;7.82;4.10;;;;;;;4.12;59.42;100316.22;4363993;32;20159;-85
2023/04/28 03:53:10;;;;;;;10.27;3.92;;;;;;;4.07;59.41;100330.81;4378121;32;20099;-86
2023/04/28 03:55:35;;;;;;;7.68;3.97;;;;;;;4.31;59.42;100325.72;4377836;32;20153;-85
2023/04/28 03:58:01;;;;;;;8.30;4.10;;;;;;;4.35;59.42;100318.84;4363906;32;20560;-86
2023/04/28 04:00:26;;;;;;;9.38;4.07;;;;;;;4.21;59.42;100324.81;4351310;32;20145;-88
2023/04/28 04:02:51;;;;;;;15.95;3.37;;;;;;;4.35;59.43;100324.87;4353082;32;20283;-87
2023/04/28 04:05:17;;;;;;;7.53;3.35;;;;;;;4.41;59.42;100330.03;4365681;32;20513;-87
2023/04/28 04:07:42;;;;;;;12.77;3.50;;;;;;;4.66;59.44;100330.06;4365803;32;20437;-86
2023/04/28 04:10:08;;;;;;;8.30;3.37;;;;;;;4.54;59.44;100329.22;4365712;32;20094;-87
2023/04/28 04:12:33;;;;;;;11.90;3.53;;;;;;;4.69;59.45;100320.62;4378250;32;20129;-87
2023/04/28 04:14:59;;;;;;;9.38;3.92;;;;;;;4.78;59.45;100325.81;4365561;32;20132;-87
2023/04/28 04:17:24;;;;;;;7.60;3.62;;;;;;;4.92;59.45;100323.22;4365555;32;20166;-87
2023/04/28 04:19:49;;;;;;;9.60;3.75;;;;;;;5.13;59.47;100332.66;4352780;32;25288;-88
2023/04/28 04:22:15;;;;;;;6.25;3.12;;;;;;;5.23;59.47;100335.25;4365758;32;20090;-87
2023/04/28 04:24:40;;;;;;;7.55;3.53;;;;;;;5.30;59.47;100333.53;4365740;32;20448;-88
2023/04/28 04:27:06;;;;;;;11.02;4.47;;;;;;;5.44;59.49;100334.38;4365723;32;20102;-87
2023/04/28 04:29:31;;;;;;;6.82;3.97;;;;;;;5.52;59.49;100329.19;4353238;32;20134;-88
2023/04/28 04:31:56;;;;;;;13.48;5.37;;;;;;;5.73;59.50;100329.13;4365385;32;20162;-87
2023/04/28 04:34:22;;;;;;;8.00;3.97;;;;;;;5.98;59.51;100329.06;4379211;32;20388;-88
2023/04/28 04:36:47;;;;;;;9.55;3.58;;;;;;;6.28;59.54;100323.75;4365257;32;20457;-88
2023/04/28 04:39:13;;;;;;;6.12;3.62;;;;;;;6.58;59.55;100322.69;4365841;32;20453;-88
2023/04/28 04:41:39;;;;;;;15.77;4.18;;;;;;;6.76;59.56;100321.72;4365260;32;20443;-88
2023/04/28 04:44:04;;;;;;;6.20;3.35;;;;;;;7.02;59.58;100319.78;4365720;32;20125;-88
2023/04/28 04:46:30;;;;;;;5.82;2.87;;;;;;;7.36;59.59;100315.16;4365483;32;20181;-87
2023/04/28 04:48:56;;;;;;;7.15;3.42;;;;;;;7.55;59.61;100317.53;4365344;32;20129;-87
2023/04/28 04:51:21;;;;;;;10.20;3.65;;;;;;;8.02;59.64;100319.59;4364684;32;33141;-88
2023/04/28 04:53:46;;;;;;;7.68;3.95;;;;;;;8.22;59.65;100309.81;4365803;32;20098;-86
2023/04/28 04:56:12;;;;;;;7.47;3.55;;;;;;;8.40;59.65;100318.25;4352246;32;20397;-85
2023/04/28 04:58:37;;;;;;;6.12;3.65;;;;;;;8.69;59.68;100316.09;4365471;32;20154;-86
2023/04/28 05:01:03;;;;;;;7.47;4.03;;;;;;;8.83;59.68;100310.69;4378932;32;20496;-85
2023/04/28 05:03:28;;;;;;;6.28;3.33;;;;;;;9.13;59.70;100309.34;4352604;32;20424;-87
2023/04/28 05:05:53;;;;;;;8.60;4.78;;;;;;;9.37;59.72;100313.25;4365055;32;20433;-84
2023/04/28 05:08:19;;;;;;;10.13;4.62;;;;;;;9.54;59.72;100312.06;4352053;32;20102;-85
2023/04/28 05:10:44;;;;;;;8.55;4.90;;;;;;;9.67;59.72;100304.84;4365228;32;20083;-86
2023/04/28 05:13:10;;;;;;;12.95;5.50;;;;;;;9.83;59.73;100308.03;4364969;32;20168;-86
2023/04/28 05:15:35;;;;;;;11.82;5.35;;;;;;;10.06;59.75;100305.81;4364519;32;32627;-86
2023/04/28 05:18:05;;;;;;;13.75;5.05;;;;;;;10.18;59.75;100304.72;4364849;32;20150;-86
2023/04/28 05:20:30;;;;;;;10.55;4.87;;;;;;;10.29;59.76;100312.31;4365748;32;20091;-87
2023/04/28 05:22:56;;;;;;;11.35;5.37;;;;;;;10.45;59.76;100300.66;4364589;32;30260;-86
2023/04/28 05:25:21;;;;;;;11.85;5.53;;;;;;;10.69;59.79;100300.09;4378868;32;20114;-86
2023/04/28 05:27:46;;;;;;;8.32;5.03;;;;;;;10.92;59.79;100307.34;4352217;32;23749;-86
2023/04/28 05:30:12;;;;;;;10.70;4.68;;;;;;;11.06;59.80;100309.59;4378926;32;20132;-86
2023/04/28 05:32:38;;;;;;;12.07;5.25;;;;;;;11.25;59.81;100303.03;4378895;32;20079;-86
2023/04/28 05:35:03;;;;;;;14.02;4.82;;;;;;;11.32;59.82;100312.41;4365639;32;20090;-87
2023/04/28 05:37:29;;;;;;;11.32;5.60;;;;;;;11.18;59.81;100308.47;4365373;32;20102;-87
2023/04/28 05:39:54;;;;;;;9.73;5.65;;;;;;;11.47;59.83;100310.28;4365099;32;20117;-86
2023/04/28 05:42:20;;;;;;;13.25;5.68;;;;;;;11.36;59.81;100308.84;4379018;32;20145;-86
2023/04/28 05:44:45;;;;;;;9.90;5.35;;;;;;;11.57;59.83;100301.31;4352166;32;27735;-86
2023/04/28 05:47:10;;;;;;;13.60;5.93;;;;;;;11.72;59.84;100311.34;4364316;32;28311;-86
2023/04/28 05:49:36;;;;;;;14.70;5.97;;;;;;;11.88;59.84;100304.84;4365066;32;20138;-86
2023/04/28 05:52:02;;;;;;;15.50;5.57;;;;;;;12.01;59.85;100309.69;4352663;32;20087;-87
2023/04/28 05:54:28;;;;;;;14.35;5.43;;;;;;;12.27;59.86;100302.78;4364957;32;20408;-86
2023/04/28 05:56:53;;;;;;;9.30;5.07;;;;;;;12.32;59.87;100313.12;4378707;32;20162;-87
2023/04/28 05:59:19;;;;;;;12.82;6.03;;;;;;;12.38;59.87;100307.72;4364991;32;20091;-88
2023/04/28 06:01:44;;;;;;;11.38;6.00;;;;;;;12.52;59.88;100302.91;4351827;32;27834;-86
2023/04/28 06:04:10;;;;;;;9.68;5.72;;;;;;;12.60;59.89;100305.28;4365150;32;20116;-87
2023/04/28 06:06:35;;;;;;;11.23;5.60;;;;;;;12.58;59.89;100304.50;4365182;32;20126;-86
2023/04/28 06:09:01;;;;;;;8.55;4.95;;;;;;;12.80;59.89;100309.88;4364809;32;20067;-87
2023/04/28 06:11:26;;;;;;;12.20;5.28;;;;;;;13.15;59.91;100312.19;4365060;32;20146;-87
2023/04/28 06:13:52;;;;;;;13.07;5.90;;;;;;;13.25;59.92;100306.66;4352679;32;20181;-87
2023/04/28 06:16:17;;;;;;;13.27;5.05;;;;;;;13.45;59.93;100307.69;4352611;32;20133;-87
2023/04/28 06:18:43;;;;;;;13.10;5.43;;;;;;;13.72;59.95;100305.00;4378792;32;20131;-87
2023/04/28 06:21:08;;;;;;;19.25;5.62;;;;;;;13.77;59.95;100308.34;4364863;32;20436;-87
2023/04/28 06:23:34;;;;;;;8.02;4.85;;;;;;;13.78;59.95;100302.19;4364457;32;20120;-87
2023/04/28 06:26:00;;;;;;;11.40;5.53;;;;;;;14.09;59.97;100301.91;4378610;32;20095;-87
2023/04/28 06:28:25;;;;;;;7.95;4.32;;;;;;;14.20;59.98;100304.97;4378706;32;20106;-88
2023/04/28 06:30:51;;;;;;;6.60;3.97;;;;;;;14.46;59.98;100300.53;4365166;32;20115;-87
2023/04/28 06:33:16;;;;;;;11.15;4.00;;;;;;;14.51;59.99;100307.28;4378661;32;20112;-87
2023/04/28 06:35:41;;;;;;;6.55;3.85;;;;;;;14.64;60.00;100305.88;4364748;32;20365;-87
2023/04/28 06:38:07;;;;;;;5.82;3.40;;;;;;;14.84;60.01;100307.72;4364753;32;20154;-88
2023/04/28 06:40:32;;;;;;;9.35;3.28;;;;;;;14.97;60.02;100310.69;4364970;32;20078;-88
2023/04/28 06:42:58;;;;;;;7.60;3.45;;;;;;;15.13;60.02;100298.63;4352360;32;20102;-87
2023/04/28 06:45:23;;;;;;;5.10;3.22;;;;;;;15.08;60.02;100305.00;4378671;32;20111;-87
2023/04/28 06:47:48;;;;;;;7.80;3.30;;;;;;;15.05;60.02;100308.59;4364101;32;22939;-88
2023/04/28 06:50:15;;;;;;;8.60;3.67;;;;;;;15.19;60.03;100308.03;4378582;32;20450;-88
2023/04/28 06:52:40;;;;;;;12.20;3.28;;;;;;;15.28;60.03;100308.50;4365007;32;20491;-87
2023/04/28 06:55:08;;;;;;;8.38;3.55;;;;;;;15.47;60.05;100305.94;4378558;32;20098;-88
2023/04/28 06:57:33;;;;;;;7.62;3.58;;;;;;;15.57;60.05;100309.84;4352840;32;20099;-88
2023/04/28 06:59:58;;;;;;;9.82;3.50;;;;;;;15.59;60.05;100305.41;4364895;32;20150;-87
2023/04/28 07:02:25;;;;;;;6.20;3.40;;;;;;;15.78;60.07;100305.47;4364652;32;20130;-87
2023/04/28 07:04:50;;;;;;;8.52;3.22;;;;;;;15.99;60.07;100294.94;4364951;32;20120;-87
2023/04/28 07:07:15;;;;;;;8.52;3.40;;;;;;;16.12;60.09;100293.47;4364721;32;20090;-87
2023/04/28 07:09:41;;;;;;;7.35;3.15;;;;;;;16.11;60.08;100304.87;4364556;32;20159;-88
2023/04/28 07:12:06;;;;;;;11.45;4.30;;;;;;;16.27;60.09;100295.34;4364720;32;20185;-87
2023/04/28 07:14:32;;;;;;;15.73;3.87;;;;;;;16.46;60.09;100292.72;4364404;32;20380;-88
2023/04/28 07:16:57;;;;;;;6.30;3.35;;;;;;;16.69;60.12;100296.91;4364779;32;20150;-88
2023/04/28 07:19:23;;;;;;;6.62;3.92;;;;;;;16.88;60.12;100289.81;4364817;32;20145;-88
2023/04/28 07:21:48;;;;;;;8.38;3.45;;;;;;;16.97;60.13;100285.88;4364409;32;20198;-88
2023/04/28 07:24:14;;;;;;;7.55;4.40;;;;;;;17.09;60.14;100285.28;4352328;32;20150;-87
2023/04/28 07:26:40;;;;;;;10.68;5.07;;;;;;;17.27;60.14;100279.09;4364690;32;20157;-87
2023/04/28 07:29:05;;;;;;;11.43;4.78;;;;;;;17.46;60.16;100285.09;4378241;32;20119;-88
2023/04/28 07:31:30;;;;;;;12.35;4.90;;;;;;;17.43;60.15;100277.34;4378183;32;20161;-87
2023/04/28 07:33:56;;;;;;;19.23;4.53;;;;;;;17.29;60.14;100289.53;4364544;32;20393;-89
2023/04/28 07:36:21;;;;;;;13.43;5.10;;;;;;;17.13;60.13;100285.03;4363295;32;20143;-88
2023/04/28 07:38:47;;;;;;;11.68;4.95;;;;;;;17.40;60.15;100280.16;4378408;32;20158;-88
2023/04/28 07:41:12;;;;;;;11.98;4.90;;;;;;;17.43;60.15;100285.25;4364281;32;20102;-88
2023/04/28 07:43:38;;;;;;;9.52;4.97;;;;;;;17.63;60.17;100276.31;4377927;32;20091;-89
2023/04/28 07:46:05;;;;;;;8.43;4.53;;;;;;;17.78;60.18;100277.34;4364320;32;20212;-87
2023/04/28 07:48:31;;;;;;;12.60;4.57;;;;;;;17.90;60.17;100267.91;4364351;32;20079;-89
2023/04/28 07:50:56;;;;;;;11.25;4.82;;;;;;;17.95;60.18;100264.09;4364422;32;20095;-88
2023/04/28 07:53:22;;;;;;;9.63;4.70;;;;;;;17.84;60.18;100260.34;4363797;32;24102;-88
2023/04/28 07:55:47;;;;;;;7.78;4.05;;;;;;;17.91;60.17;100256.44;4351118;32;31254;-88
2023/04/28 07:58:12;;;;;;;10.27;4.55;;;;;;;18.02;60.18;100254.94;4351708;32;20455;-88
2023/04/28 08:00:38;;;;;;;6.85;4.03;;;;;;;18.18;60.19;100249.66;4364057;32;20099;-89
2023/04/28 08:03:03;;;;;;;6.22;2.90;;;;;;;18.30;60.20;100243.72;4363841;32;20142;-88
2023/04/28 08:05:29;;;;;;;9.90;3.47;;;;;;;18.49;60.21;100242.69;4364030;32;20091;-88
2023/04/28 08:07:54;;;;;;;6.32;3.65;;;;;;;18.83;60.23;100236.34;4364116;32;20099;-88
2023/04/28 08:10:20;;;;;;;6.50;3.70;;;;;;;19.10;60.24;100239.16;4377695;32;20363;-89
2023/04/28 08:12:45;;;;;;;10.68;3.70;;;;;;;19.24;60.25;100231.28;4351378;32;20117;-89
2023/04/28 08:15:11;;;;;;;5.65;3.67;;;;;;;19.38;60.27;100225.12;4363927;32;20135;-89
2023/04/28 08:17:36;;;;;;;9.15;3.37;;;;;;;19.59;60.27;100216.78;4364148;32;20117;-88
2023/04/28 08:20:02;;;;;;;12.65;4.55;;;;;;;19.67;60.27;100213.69;4377464;32;20392;-88
2023/04/28 08:22:27;;;;;;;7.95;3.53;;;;;;;19.76;60.27;100217.53;4377524;32;20389;-89
2023/04/28 08:24:53;;;;;;;9.23;3.58;;;;;;;19.91;60.28;100216.59;4363723;32;20087;-88
2023/04/28 08:27:18;;;;;;;9.80;4.55;;;;;;;19.96;60.29;100211.84;4363789;32;20083;-88
2023/04/28 08:29:44;;;;;;;5.87;3.15;;;;;;;19.98;60.29;100214.41;4363458;32;20118;-88
2023/04/28 08:32:09;;;;;;;8.10;3.37;;;;;;;20.07;60.29;100211.16;4363585;32;20504;-89
2023/04/28 08:34:35;;;;;;;8.57;3.03;;;;;;;20.14;60.30;100204.56;4351217;32;20489;-89
2023/04/28 08:37:00;;;;;;;8.55;3.08;;;;;;;20.14;60.29;100205.41;4366193;32;20154;-89
2023/04/28 08:39:26;;;;;;;7.20;3.45;;;;;;;20.23;60.31;100203.94;4377987;32;20469;-90
2023/04/28 08:41:52;;;;;;;8.68;3.70;;;;;;;20.43;60.31;100208.81;4350984;32;20102;-89
2023/04/28 08:44:17;;;;;;;8.90;3.00;;;;;;;20.47;60.32;100198.88;4363376;32;20090;-89
2023/04/28 08:46:43;;;;;;;7.57;3.10;;;;;;;20.48;60.32;100196.16;4364011;32;20133;-89
2023/04/28 08:49:14;;;;;;;10.60;2.90;;;;;;;20.35;60.31;100200.53;4353295;32;20467;-89
2023/04/28 08:51:44;;;;;;;16.60;3.97;;;;;;;20.57;60.33;100191.19;4365838;32;20190;-90
2023/04/28 08:54:10;;;;;;;8.27;4.28;;;;;;;20.66;60.32;100191.44;4353284;32;20534;-89
2023/04/28 08:56:35;;;;;;;8.52;2.92;;;;;;;20.78;60.34;100192.41;4366023;32;20532;-89
2023/04/28 08:59:02;;;;;;;7.55;3.47;;;;;;;20.88;60.34;100197.94;4365670;32;20146;-89
2023/04/28 09:01:27;;;;;;;7.45;3.53;;;;;;;20.93;60.35;100186.09;4365791;32;20452;-91
2023/04/28 09:03:53;;;;;;;8.15;3.55;;;;;;;20.80;60.34;100191.34;4353153;32;20111;-89
2023/04/28 09:06:18;;;;;;;9.38;3.40;;;;;;;20.82;60.33;100200.06;4365313;32;28796;-88
2023/04/28 09:08:44;;;;;;;8.73;4.72;;;;;;;20.87;60.34;100193.59;4352719;32;26456;-89
2023/04/28 09:11:11;;;;;;;6.87;3.50;;;;;;;20.70;60.34;100184.16;4365780;32;20107;-89
2023/04/28 09:13:36;;;;;;;8.10;3.92;;;;;;;21.05;60.35;100189.69;4353709;32;20087;-89
2023/04/28 09:16:02;;;;;;;5.57;3.00;;;;;;;21.28;60.36;100190.78;4366063;32;20141;-89
2023/04/28 09:18:31;;;;;;;7.12;2.72;;;;;;;21.37;60.36;100187.50;4365832;32;20418;-89
2023/04/28 09:21:07;;;;;;;5.12;2.35;;;;;;;21.43;60.37;100184.44;4365918;32;20098;-88
2023/04/28 09:23:32;;;;;;;5.15;2.35;;;;;;;21.53;60.37;100182.84;4365484;32;20094;-88
2023/04/28 09:26:02;;;;;;;12.20;2.35;;;;;;;21.70;60.39;100182.47;4365137;32;20382;-89
2023/04/28 09:28:27;;;;;;;8.97;3.00;;;;;;;22.05;60.40;100182.63;4365679;32;20128;-89
2023/04/28 09:30:53;;;;;;;5.45;2.22;;;;;;;22.28;60.42;100183.59;4365514;32;20155;-90
2023/04/28 09:33:20;;;;;;;8.18;2.35;;;;;;;22.45;60.42;100186.78;4365516;32;20091;-89
2023/04/28 09:35:46;;;;;;;7.10;2.47;;;;;;;22.51;60.43;100183.72;4365336;32;20094;-89
2023/04/28 09:38:12;;;;;;;8.30;2.12;;;;;;;22.65;60.44;100186.16;4365621;32;20479;-87
2023/04/28 09:41:00;;;;;;;4.53;2.42;;;;;;;22.80;60.45;100185.00;4365275;32;20099;-87
2023/04/28 09:43:30;;;;;;;7.00;4.75;;;;;;;22.84;60.44;100167.91;4379087;32;20086;-90
2023/04/28 09:45:56;;;;;;;5.95;3.78;;;;;;;22.66;60.44;100172.78;4352734;32;20161;-88
2023/04/28 09:48:35;;;;;;;7.15;2.37;;;;;;;22.67;60.44;100173.63;4352933;32;20545;-88
2023/04/28 09:51:01;;;;;;;4.10;2.03;;;;;;;22.70;60.43;100173.38;4379067;32;20121;-86
2023/04/28 09:53:27;;;;;;;6.10;2.33;;;;;;;22.83;60.44;100160.06;4352720;32;20137;-86
2023/04/28 09:55:53;;;;;;;5.82;2.10;;;;;;;22.77;60.44;100165.81;4365325;32;20468;-87
2023/04/28 09:58:19;;;;;;;5.47;1.90;;;;;;;22.85;60.45;100166.94;4352022;32;20443;-87
2023/04/28 10:00:45;;;;;;;4.40;2.28;;;;;;;22.94;60.46;100162.75;4365398;32;20453;-87
2023/04/28 10:03:10;;;;;;;5.95;2.33;;;;;;;22.98;60.46;100160.72;4365272;32;20198;-88
2023/04/28 10:05:37;;;;;;;4.60;2.25;;;;;;;23.08;60.46;100143.09;4365142;32;20095;-90
2023/04/28 10:08:03;;;;;;;5.85;2.15;;;;;;;23.02;60.45;100146.25;4365492;32;20124;-87
2023/04/28 10:10:28;;;;;;;3.58;2.00;;;;;;;22.90;60.45;100146.19;4340505;32;20220;-87
2023/04/28 10:12:54;;;;;;;4.60;2.45;;;;;;;22.78;60.44;100146.28;4365456;32;20182;-86
2023/04/28 10:15:19;;;;;;;7.80;2.50;;;;;;;22.73;60.44;100140.50;4368797;32;20115;-87
2023/04/28 10:17:45;;;;;;;5.90;2.70;;;;;;;22.59;60.44;100147.66;4369599;32;20098;-86
2023/04/28 10:20:11;;;;;;;6.87;2.25;;;;;;;22.58;60.44;100147.78;4365433;32;20107;-88
2023/04/28 10:22:50;;;;;;;6.55;2.92;;;;;;;22.54;60.43;100147.19;4352819;32;20089;-86
2023/04/28 10:25:26;;;;;;;13.27;3.00;;;;;;;22.18;60.42;100140.16;4365047;32;20510;-87
2023/04/28 10:27:51;;;;;;;6.30;3.22;;;;;;;22.26;60.42;100124.53;4365164;32;20196;-86
2023/04/28 10:30:21;;;;;;;7.40;2.60;;;;;;;22.47;60.43;100118.56;4365389;32;20098;-87
2023/04/28 10:32:47;;;;;;;6.37;2.75;;;;;;;22.62;60.43;100112.09;4365383;32;20087;-87
2023/04/28 10:35:35;;;;;;;7.85;2.55;;;;;;;22.81;60.46;100108.88;4365347;32;20105;-86
2023/04/28 10:38:13;;;;;;;5.65;3.10;;;;;;;22.89;60.45;100117.97;4379229;32;20106;-87
2023/04/28 10:40:40;;;;;;;8.65;2.40;;;;;;;22.78;60.45;100109.13;4365421;32;20124;-87
2023/04/28 10:43:13;;;;;;;4.65;2.15;;;;;;;22.88;60.45;100108.31;4365020;32;20463;-87
2023/04/28 10:45:47;;;;;;;7.65;2.05;;;;;;;22.89;60.45;100099.38;4352716;32;20091;-87
2023/04/28 10:48:13;;;;;;;5.35;3.17;;;;;;;22.96;60.46;100100.63;4365210;32;20744;-87
2023/04/28 10:51:01;;;;;;;3.00;2.17;;;;;;;22.88;60.46;100097.69;4365222;32;20120;-87
2023/04/28 10:53:45;;;;;;;11.85;5.82;;;;;;;23.10;60.47;100088.91;4365408;32;20409;-87
2023/04/28 10:56:11;;;;;;;3.75;1.98;;;;;;;23.10;60.47;100086.25;4365163;32;20503;-87
2023/04/28 10:58:41;;;;;;;4.10;1.95;;;;;;;23.13;60.47;100083.34;4378906;32;20432;-88
2023/04/28 11:01:19;;;;;;;5.85;2.53;;;;;;;23.17;60.47;100074.16;4365572;32;20103;-87
2023/04/28 11:03:52;;;;;;;4.28;2.30;;;;;;;23.20;60.47;100070.44;4378667;32;20094;-88
2023/04/28 11:06:28;;;;;;;5.25;2.20;;;;;;;23.35;60.48;100071.03;4352258;32;20091;-88
2023/04/28 11:08:55;;;;;;;2.50;1.75;;;;;;;23.11;60.47;100068.50;4364919;32;20472;-87
2023/04/28 11:11:26;;;;;;;5.50;2.05;;;;;;;23.35;60.48;100057.75;4378376;32;20161;-87
2023/04/28 11:13:53;;;;;;;4.28;2.22;;;;;;;23.34;60.48;100062.22;4378450;32;20087;-89
2023/04/28 11:16:20;;;;;;;7.25;2.03;;;;;;;23.28;60.47;100057.41;4352542;32;20152;-89
2023/04/28 11:18:49;;;;;;;5.30;2.03;;;;;;;22.98;60.46;100049.22;4352438;32;20129;-87
2023/04/28 11:21:15;;;;;;;5.78;1.95;;;;;;;22.94;60.46;100060.06;4364766;32;20468;-87